sensor_id;sensor_type;location;lat;lon;timestamp;P1;durP1;ratioP1;P2;durP2;ratioP2
30303;SDS011;17112;48.636;10.152;2024-03-07T00:00:02;36.80;;;22.10;;
30303;SDS011;17112;48.636;10.152;2024-03-07T00:02:39;34.03;;;22.58;;
30303;SDS011;17112;48.636;10.152;2024-03-07T00:05:06;39.00;;;22.48;;
30303;SDS011;17112;48.636;10.152;2024-03-07T00:07:33;41.63;;;22.77;;
30303;SDS011;17112;48.636;10.152;2024-03-07T00:09:59;40.10;;;23.27;;
30303;SDS011;17112;48.636;10.152;2024-03-07T00:12:25;45.42;;;23.98;;
30303;SDS011;17112;48.636;10.152;2024-03-07T00:14:52;42.05;;;24.48;;
30303;SDS011;17112;48.636;10.152;2024-03-07T00:17:18;39.20;;;24.20;;
30303;SDS011;17112;48.636;10.152;2024-03-07T00:19:44;37.90;;;24.35;;
30303;SDS011;17112;48.636;10.152;2024-03-07T00:22:10;40.05;;;24.98;;
30303;SDS011;17112;48.636;10.152;2024-03-07T00:24:36;36.88;;;23.15;;
30303;SDS011;17112;48.636;10.152;2024-03-07T00:27:03;39.70;;;23.02;;
30303;SDS011;17112;48.636;10.152;2024-03-07T00:29:29;43.13;;;24.17;;
30303;SDS011;17112;48.636;10.152;2024-03-07T00:31:54;37.25;;;23.15;;
30303;SDS011;17112;48.636;10.152;2024-03-07T00:34:20;41.20;;;23.42;;
30303;SDS011;17112;48.636;10.152;2024-03-07T00:36:48;38.78;;;23.70;;
30303;SDS011;17112;48.636;10.152;2024-03-07T00:39:14;42.83;;;25.33;;
30303;SDS011;17112;48.636;10.152;2024-03-07T00:41:39;43.30;;;23.52;;
30303;SDS011;17112;48.636;10.152;2024-03-07T00:44:06;39.72;;;23.65;;
30303;SDS011;17112;48.636;10.152;2024-03-07T00:46:34;39.13;;;23.63;;
30303;SDS011;17112;48.636;10.152;2024-03-07T00:49:01;40.35;;;24.38;;
30303;SDS011;17112;48.636;10.152;2024-03-07T00:51:27;43.50;;;25.50;;
30303;SDS011;17112;48.636;10.152;2024-03-07T00:53:53;40.50;;;24.42;;
30303;SDS011;17112;48.636;10.152;2024-03-07T00:56:19;43.15;;;26.65;;
30303;SDS011;17112;48.636;10.152;2024-03-07T00:58:46;41.75;;;25.17;;
30303;SDS011;17112;48.636;10.152;2024-03-07T01:01:15;38.65;;;24.30;;
30303;SDS011;17112;48.636;10.152;2024-03-07T01:03:42;39.22;;;25.05;;
30303;SDS011;17112;48.636;10.152;2024-03-07T01:06:08;42.28;;;25.73;;
30303;SDS011;17112;48.636;10.152;2024-03-07T01:08:37;37.25;;;24.60;;
30303;SDS011;17112;48.636;10.152;2024-03-07T01:11:03;51.58;;;26.50;;
30303;SDS011;17112;48.636;10.152;2024-03-07T01:13:37;41.10;;;25.27;;
30303;SDS011;17112;48.636;10.152;2024-03-07T01:16:04;43.22;;;25.85;;
30303;SDS011;17112;48.636;10.152;2024-03-07T01:18:30;41.13;;;25.35;;
30303;SDS011;17112;48.636;10.152;2024-03-07T01:21:00;42.58;;;25.92;;
30303;SDS011;17112;48.636;10.152;2024-03-07T01:23:26;39.67;;;24.90;;
30303;SDS011;17112;48.636;10.152;2024-03-07T01:25:54;42.67;;;25.85;;
30303;SDS011;17112;48.636;10.152;2024-03-07T01:28:21;38.05;;;24.63;;
30303;SDS011;17112;48.636;10.152;2024-03-07T01:30:48;40.25;;;25.00;;
30303;SDS011;17112;48.636;10.152;2024-03-07T01:33:15;43.72;;;26.15;;
30303;SDS011;17112;48.636;10.152;2024-03-07T01:35:41;39.70;;;25.42;;
30303;SDS011;17112;48.636;10.152;2024-03-07T01:38:06;41.85;;;26.50;;
30303;SDS011;17112;48.636;10.152;2024-03-07T01:40:33;43.90;;;26.05;;
30303;SDS011;17112;48.636;10.152;2024-03-07T01:43:01;44.30;;;26.98;;
30303;SDS011;17112;48.636;10.152;2024-03-07T01:45:27;44.95;;;28.10;;
30303;SDS011;17112;48.636;10.152;2024-03-07T01:47:53;40.67;;;26.15;;
30303;SDS011;17112;48.636;10.152;2024-03-07T01:50:20;42.10;;;26.58;;
30303;SDS011;17112;48.636;10.152;2024-03-07T01:52:46;47.90;;;27.45;;
30303;SDS011;17112;48.636;10.152;2024-03-07T01:55:15;41.83;;;26.17;;
30303;SDS011;17112;48.636;10.152;2024-03-07T01:57:41;43.72;;;26.40;;
30303;SDS011;17112;48.636;10.152;2024-03-07T02:00:07;41.03;;;25.55;;
30303;SDS011;17112;48.636;10.152;2024-03-07T02:02:34;41.92;;;25.75;;
30303;SDS011;17112;48.636;10.152;2024-03-07T02:05:00;47.80;;;26.95;;
30303;SDS011;17112;48.636;10.152;2024-03-07T02:07:26;47.05;;;26.48;;
30303;SDS011;17112;48.636;10.152;2024-03-07T02:10:04;43.92;;;26.65;;
30303;SDS011;17112;48.636;10.152;2024-03-07T02:12:31;45.53;;;26.63;;
30303;SDS011;17112;48.636;10.152;2024-03-07T02:14:58;45.50;;;27.33;;
30303;SDS011;17112;48.636;10.152;2024-03-07T02:17:26;39.13;;;26.60;;
30303;SDS011;17112;48.636;10.152;2024-03-07T02:19:52;43.17;;;25.90;;
30303;SDS011;17112;48.636;10.152;2024-03-07T02:22:18;43.20;;;26.85;;
30303;SDS011;17112;48.636;10.152;2024-03-07T02:24:44;46.25;;;28.17;;
30303;SDS011;17112;48.636;10.152;2024-03-07T02:27:11;44.10;;;27.35;;
30303;SDS011;17112;48.636;10.152;2024-03-07T02:29:41;43.10;;;27.50;;
30303;SDS011;17112;48.636;10.152;2024-03-07T02:32:07;48.80;;;27.23;;
30303;SDS011;17112;48.636;10.152;2024-03-07T02:34:33;43.25;;;26.20;;
30303;SDS011;17112;48.636;10.152;2024-03-07T02:36:59;44.85;;;27.17;;
30303;SDS011;17112;48.636;10.152;2024-03-07T02:39:25;43.20;;;26.27;;
30303;SDS011;17112;48.636;10.152;2024-03-07T02:41:51;41.08;;;25.02;;
30303;SDS011;17112;48.636;10.152;2024-03-07T02:44:16;44.67;;;25.90;;
30303;SDS011;17112;48.636;10.152;2024-03-07T02:46:43;43.92;;;27.60;;
30303;SDS011;17112;48.636;10.152;2024-03-07T02:49:09;45.10;;;26.70;;
30303;SDS011;17112;48.636;10.152;2024-03-07T02:51:35;44.78;;;28.13;;
30303;SDS011;17112;48.636;10.152;2024-03-07T02:54:01;52.50;;;27.60;;
30303;SDS011;17112;48.636;10.152;2024-03-07T02:56:30;45.55;;;27.65;;
30303;SDS011;17112;48.636;10.152;2024-03-07T02:58:56;42.05;;;26.58;;
30303;SDS011;17112;48.636;10.152;2024-03-07T03:01:22;44.72;;;27.48;;
30303;SDS011;17112;48.636;10.152;2024-03-07T03:03:47;45.78;;;27.23;;
30303;SDS011;17112;48.636;10.152;2024-03-07T03:06:13;44.33;;;27.02;;
30303;SDS011;17112;48.636;10.152;2024-03-07T03:08:39;39.50;;;25.13;;
30303;SDS011;17112;48.636;10.152;2024-03-07T03:11:05;43.20;;;25.98;;
30303;SDS011;17112;48.636;10.152;2024-03-07T03:13:34;48.97;;;27.48;;
30303;SDS011;17112;48.636;10.152;2024-03-07T03:16:03;46.13;;;25.75;;
30303;SDS011;17112;48.636;10.152;2024-03-07T03:18:32;42.03;;;25.65;;
30303;SDS011;17112;48.636;10.152;2024-03-07T03:20:59;41.35;;;25.02;;
30303;SDS011;17112;48.636;10.152;2024-03-07T03:23:25;46.95;;;25.65;;
30303;SDS011;17112;48.636;10.152;2024-03-07T03:25:50;42.63;;;26.70;;
30303;SDS011;17112;48.636;10.152;2024-03-07T03:28:16;40.65;;;24.73;;
30303;SDS011;17112;48.636;10.152;2024-03-07T03:30:44;42.80;;;26.23;;
30303;SDS011;17112;48.636;10.152;2024-03-07T03:33:10;46.78;;;25.65;;
30303;SDS011;17112;48.636;10.152;2024-03-07T03:35:39;43.10;;;26.02;;
30303;SDS011;17112;48.636;10.152;2024-03-07T03:38:05;41.05;;;25.13;;
30303;SDS011;17112;48.636;10.152;2024-03-07T03:40:31;42.60;;;24.60;;
30303;SDS011;17112;48.636;10.152;2024-03-07T03:42:57;44.20;;;26.13;;
30303;SDS011;17112;48.636;10.152;2024-03-07T03:45:23;49.63;;;27.10;;
30303;SDS011;17112;48.636;10.152;2024-03-07T03:47:50;44.38;;;27.25;;
30303;SDS011;17112;48.636;10.152;2024-03-07T03:50:16;42.67;;;25.17;;
30303;SDS011;17112;48.636;10.152;2024-03-07T03:52:47;43.13;;;24.50;;
30303;SDS011;17112;48.636;10.152;2024-03-07T03:55:13;39.88;;;25.52;;
30303;SDS011;17112;48.636;10.152;2024-03-07T03:57:42;40.20;;;24.17;;
30303;SDS011;17112;48.636;10.152;2024-03-07T04:00:10;44.65;;;25.80;;
30303;SDS011;17112;48.636;10.152;2024-03-07T04:02:42;39.83;;;24.77;;
30303;SDS011;17112;48.636;10.152;2024-03-07T04:05:10;40.42;;;25.40;;
30303;SDS011;17112;48.636;10.152;2024-03-07T04:07:38;40.15;;;25.52;;
30303;SDS011;17112;48.636;10.152;2024-03-07T04:10:04;41.63;;;25.33;;
30303;SDS011;17112;48.636;10.152;2024-03-07T04:12:37;41.25;;;26.15;;
30303;SDS011;17112;48.636;10.152;2024-03-07T04:17:32;46.08;;;26.48;;
30303;SDS011;17112;48.636;10.152;2024-03-07T04:19:59;43.75;;;26.00;;
30303;SDS011;17112;48.636;10.152;2024-03-07T04:22:25;42.03;;;24.80;;
30303;SDS011;17112;48.636;10.152;2024-03-07T04:24:51;45.70;;;26.90;;
30303;SDS011;17112;48.636;10.152;2024-03-07T04:27:20;41.60;;;25.08;;
30303;SDS011;17112;48.636;10.152;2024-03-07T04:29:46;43.35;;;25.95;;
30303;SDS011;17112;48.636;10.152;2024-03-07T04:32:13;43.00;;;25.70;;
30303;SDS011;17112;48.636;10.152;2024-03-07T04:34:39;39.20;;;25.25;;
30303;SDS011;17112;48.636;10.152;2024-03-07T04:37:05;40.38;;;24.90;;
30303;SDS011;17112;48.636;10.152;2024-03-07T04:39:31;47.78;;;25.92;;
30303;SDS011;17112;48.636;10.152;2024-03-07T04:42:00;45.75;;;26.45;;
30303;SDS011;17112;48.636;10.152;2024-03-07T04:44:27;46.42;;;27.30;;
30303;SDS011;17112;48.636;10.152;2024-03-07T04:46:59;49.88;;;27.77;;
30303;SDS011;17112;48.636;10.152;2024-03-07T04:49:26;43.17;;;25.77;;
30303;SDS011;17112;48.636;10.152;2024-03-07T04:51:54;42.65;;;25.73;;
30303;SDS011;17112;48.636;10.152;2024-03-07T04:54:20;44.25;;;25.80;;
30303;SDS011;17112;48.636;10.152;2024-03-07T04:56:47;40.58;;;25.30;;
30303;SDS011;17112;48.636;10.152;2024-03-07T04:59:14;43.00;;;25.98;;
30303;SDS011;17112;48.636;10.152;2024-03-07T05:01:41;41.80;;;26.02;;
30303;SDS011;17112;48.636;10.152;2024-03-07T05:04:08;43.92;;;24.80;;
30303;SDS011;17112;48.636;10.152;2024-03-07T05:06:34;44.35;;;26.35;;
30303;SDS011;17112;48.636;10.152;2024-03-07T05:09:01;52.55;;;27.58;;
30303;SDS011;17112;48.636;10.152;2024-03-07T05:11:31;46.10;;;26.27;;
30303;SDS011;17112;48.636;10.152;2024-03-07T05:13:58;43.67;;;24.75;;
30303;SDS011;17112;48.636;10.152;2024-03-07T05:16:24;43.15;;;25.17;;
30303;SDS011;17112;48.636;10.152;2024-03-07T05:18:51;41.47;;;24.58;;
30303;SDS011;17112;48.636;10.152;2024-03-07T05:21:17;42.83;;;24.40;;
30303;SDS011;17112;48.636;10.152;2024-03-07T05:26:28;35.00;;;21.20;;
30303;SDS011;17112;48.636;10.152;2024-03-07T05:29:02;37.53;;;22.48;;
30303;SDS011;17112;48.636;10.152;2024-03-07T05:31:33;36.25;;;22.48;;
30303;SDS011;17112;48.636;10.152;2024-03-07T05:34:00;37.63;;;23.27;;
30303;SDS011;17112;48.636;10.152;2024-03-07T05:36:29;35.08;;;22.00;;
30303;SDS011;17112;48.636;10.152;2024-03-07T05:38:58;39.00;;;22.38;;
30303;SDS011;17112;48.636;10.152;2024-03-07T05:41:24;39.00;;;22.55;;
30303;SDS011;17112;48.636;10.152;2024-03-07T05:43:53;37.40;;;23.58;;
30303;SDS011;17112;48.636;10.152;2024-03-07T05:46:19;37.45;;;22.73;;
30303;SDS011;17112;48.636;10.152;2024-03-07T05:48:45;36.65;;;22.35;;
30303;SDS011;17112;48.636;10.152;2024-03-07T05:51:15;41.03;;;22.77;;
30303;SDS011;17112;48.636;10.152;2024-03-07T05:53:41;39.10;;;22.25;;
30303;SDS011;17112;48.636;10.152;2024-03-07T05:56:07;33.03;;;21.23;;
30303;SDS011;17112;48.636;10.152;2024-03-07T05:58:33;41.17;;;23.20;;
30303;SDS011;17112;48.636;10.152;2024-03-07T06:00:59;41.00;;;22.60;;
30303;SDS011;17112;48.636;10.152;2024-03-07T06:03:24;35.50;;;22.17;;
30303;SDS011;17112;48.636;10.152;2024-03-07T06:05:50;36.63;;;23.27;;
30303;SDS011;17112;48.636;10.152;2024-03-07T06:08:19;34.15;;;22.40;;
30303;SDS011;17112;48.636;10.152;2024-03-07T06:10:46;37.35;;;21.85;;
30303;SDS011;17112;48.636;10.152;2024-03-07T06:13:13;38.33;;;21.85;;
30303;SDS011;17112;48.636;10.152;2024-03-07T06:15:42;35.13;;;22.10;;
30303;SDS011;17112;48.636;10.152;2024-03-07T06:18:09;43.65;;;21.20;;
30303;SDS011;17112;48.636;10.152;2024-03-07T06:20:42;38.58;;;21.88;;
30303;SDS011;17112;48.636;10.152;2024-03-07T06:23:08;38.15;;;23.60;;
30303;SDS011;17112;48.636;10.152;2024-03-07T06:25:36;38.03;;;22.45;;
30303;SDS011;17112;48.636;10.152;2024-03-07T06:28:12;37.03;;;21.73;;
30303;SDS011;17112;48.636;10.152;2024-03-07T06:30:39;36.10;;;21.13;;
30303;SDS011;17112;48.636;10.152;2024-03-07T06:33:06;36.38;;;21.52;;
30303;SDS011;17112;48.636;10.152;2024-03-07T06:35:32;37.88;;;21.67;;
30303;SDS011;17112;48.636;10.152;2024-03-07T06:38:02;35.63;;;21.70;;
30303;SDS011;17112;48.636;10.152;2024-03-07T06:40:28;37.72;;;22.48;;
30303;SDS011;17112;48.636;10.152;2024-03-07T06:42:54;40.22;;;22.90;;
30303;SDS011;17112;48.636;10.152;2024-03-07T06:45:21;37.67;;;22.35;;
30303;SDS011;17112;48.636;10.152;2024-03-07T06:47:49;38.80;;;22.75;;
30303;SDS011;17112;48.636;10.152;2024-03-07T06:50:17;38.05;;;22.73;;
30303;SDS011;17112;48.636;10.152;2024-03-07T06:52:47;39.38;;;22.42;;
30303;SDS011;17112;48.636;10.152;2024-03-07T06:55:16;39.92;;;23.27;;
30303;SDS011;17112;48.636;10.152;2024-03-07T06:57:42;36.80;;;21.60;;
30303;SDS011;17112;48.636;10.152;2024-03-07T07:00:09;35.25;;;22.45;;
30303;SDS011;17112;48.636;10.152;2024-03-07T07:02:39;39.47;;;23.25;;
30303;SDS011;17112;48.636;10.152;2024-03-07T07:05:06;35.13;;;21.95;;
30303;SDS011;17112;48.636;10.152;2024-03-07T07:07:39;43.22;;;23.55;;
30303;SDS011;17112;48.636;10.152;2024-03-07T07:10:08;39.65;;;23.48;;
30303;SDS011;17112;48.636;10.152;2024-03-07T07:12:41;40.13;;;23.63;;
30303;SDS011;17112;48.636;10.152;2024-03-07T07:15:08;39.78;;;22.92;;
30303;SDS011;17112;48.636;10.152;2024-03-07T07:17:35;38.60;;;23.23;;
30303;SDS011;17112;48.636;10.152;2024-03-07T07:20:01;34.10;;;21.92;;
30303;SDS011;17112;48.636;10.152;2024-03-07T07:22:34;37.22;;;21.95;;
30303;SDS011;17112;48.636;10.152;2024-03-07T07:25:00;34.45;;;22.25;;
30303;SDS011;17112;48.636;10.152;2024-03-07T07:27:25;39.75;;;22.10;;
30303;SDS011;17112;48.636;10.152;2024-03-07T07:29:52;33.53;;;21.83;;
30303;SDS011;17112;48.636;10.152;2024-03-07T07:32:18;37.05;;;21.77;;
30303;SDS011;17112;48.636;10.152;2024-03-07T07:34:43;32.85;;;20.85;;
30303;SDS011;17112;48.636;10.152;2024-03-07T07:37:09;35.95;;;21.83;;
30303;SDS011;17112;48.636;10.152;2024-03-07T07:39:35;38.38;;;21.92;;
30303;SDS011;17112;48.636;10.152;2024-03-07T07:42:01;35.60;;;22.55;;
30303;SDS011;17112;48.636;10.152;2024-03-07T07:44:26;32.30;;;22.08;;
30303;SDS011;17112;48.636;10.152;2024-03-07T07:46:52;39.17;;;22.40;;
30303;SDS011;17112;48.636;10.152;2024-03-07T07:49:18;40.10;;;23.55;;
30303;SDS011;17112;48.636;10.152;2024-03-07T07:51:44;39.53;;;24.00;;
30303;SDS011;17112;48.636;10.152;2024-03-07T07:54:10;39.70;;;21.73;;
30303;SDS011;17112;48.636;10.152;2024-03-07T07:56:36;39.33;;;23.58;;
30303;SDS011;17112;48.636;10.152;2024-03-07T07:59:02;37.13;;;22.80;;
30303;SDS011;17112;48.636;10.152;2024-03-07T08:01:32;37.45;;;23.30;;
30303;SDS011;17112;48.636;10.152;2024-03-07T08:03:59;36.47;;;23.15;;
30303;SDS011;17112;48.636;10.152;2024-03-07T08:06:24;39.40;;;22.67;;
30303;SDS011;17112;48.636;10.152;2024-03-07T08:08:50;36.83;;;23.55;;
30303;SDS011;17112;48.636;10.152;2024-03-07T08:11:16;39.30;;;23.23;;
30303;SDS011;17112;48.636;10.152;2024-03-07T08:13:42;36.78;;;23.80;;
30303;SDS011;17112;48.636;10.152;2024-03-07T08:16:09;34.05;;;22.45;;
30303;SDS011;17112;48.636;10.152;2024-03-07T08:18:36;39.20;;;22.77;;
30303;SDS011;17112;48.636;10.152;2024-03-07T08:21:03;38.50;;;23.35;;
30303;SDS011;17112;48.636;10.152;2024-03-07T08:23:29;40.60;;;23.58;;
30303;SDS011;17112;48.636;10.152;2024-03-07T08:25:56;41.67;;;23.05;;
30303;SDS011;17112;48.636;10.152;2024-03-07T08:28:23;40.08;;;23.17;;
30303;SDS011;17112;48.636;10.152;2024-03-07T08:30:49;36.85;;;23.02;;
30303;SDS011;17112;48.636;10.152;2024-03-07T08:33:14;39.00;;;23.98;;
30303;SDS011;17112;48.636;10.152;2024-03-07T08:35:40;36.53;;;22.58;;
30303;SDS011;17112;48.636;10.152;2024-03-07T08:38:06;39.67;;;24.08;;
30303;SDS011;17112;48.636;10.152;2024-03-07T08:40:33;40.67;;;24.02;;
30303;SDS011;17112;48.636;10.152;2024-03-07T08:42:59;40.38;;;24.73;;
30303;SDS011;17112;48.636;10.152;2024-03-07T08:45:26;39.72;;;24.60;;
30303;SDS011;17112;48.636;10.152;2024-03-07T08:47:53;38.47;;;25.10;;
30303;SDS011;17112;48.636;10.152;2024-03-07T08:50:19;42.03;;;24.75;;
30303;SDS011;17112;48.636;10.152;2024-03-07T08:52:46;43.90;;;26.48;;
30303;SDS011;17112;48.636;10.152;2024-03-07T08:55:16;37.25;;;24.83;;
30303;SDS011;17112;48.636;10.152;2024-03-07T08:57:45;38.13;;;25.23;;
30303;SDS011;17112;48.636;10.152;2024-03-07T09:00:13;38.92;;;25.17;;
30303;SDS011;17112;48.636;10.152;2024-03-07T09:02:52;41.15;;;26.63;;
30303;SDS011;17112;48.636;10.152;2024-03-07T09:05:28;38.67;;;25.60;;
30303;SDS011;17112;48.636;10.152;2024-03-07T09:07:54;45.85;;;27.67;;
30303;SDS011;17112;48.636;10.152;2024-03-07T09:10:20;40.83;;;25.95;;
30303;SDS011;17112;48.636;10.152;2024-03-07T09:12:46;43.17;;;28.33;;
30303;SDS011;17112;48.636;10.152;2024-03-07T09:15:15;42.58;;;26.58;;
30303;SDS011;17112;48.636;10.152;2024-03-07T09:17:46;39.75;;;26.15;;
30303;SDS011;17112;48.636;10.152;2024-03-07T09:20:12;34.65;;;23.75;;
30303;SDS011;17112;48.636;10.152;2024-03-07T09:22:44;38.83;;;24.30;;
30303;SDS011;17112;48.636;10.152;2024-03-07T09:25:12;35.22;;;24.50;;
30303;SDS011;17112;48.636;10.152;2024-03-07T09:27:38;38.08;;;23.70;;
30303;SDS011;17112;48.636;10.152;2024-03-07T09:30:05;37.63;;;25.85;;
30303;SDS011;17112;48.636;10.152;2024-03-07T09:32:37;37.30;;;25.17;;
30303;SDS011;17112;48.636;10.152;2024-03-07T09:35:04;37.38;;;24.60;;
30303;SDS011;17112;48.636;10.152;2024-03-07T09:37:32;40.75;;;25.20;;
30303;SDS011;17112;48.636;10.152;2024-03-07T09:39:59;46.35;;;26.85;;
30303;SDS011;17112;48.636;10.152;2024-03-07T09:42:25;42.00;;;27.85;;
30303;SDS011;17112;48.636;10.152;2024-03-07T09:44:53;45.88;;;28.95;;
30303;SDS011;17112;48.636;10.152;2024-03-07T09:47:21;42.25;;;27.85;;
30303;SDS011;17112;48.636;10.152;2024-03-07T09:49:47;42.88;;;27.33;;
30303;SDS011;17112;48.636;10.152;2024-03-07T09:52:13;41.40;;;26.98;;
30303;SDS011;17112;48.636;10.152;2024-03-07T09:54:41;38.67;;;25.27;;
30303;SDS011;17112;48.636;10.152;2024-03-07T09:57:07;41.17;;;24.90;;
30303;SDS011;17112;48.636;10.152;2024-03-07T09:59:36;41.92;;;26.38;;
30303;SDS011;17112;48.636;10.152;2024-03-07T10:02:05;42.15;;;26.10;;
30303;SDS011;17112;48.636;10.152;2024-03-07T10:04:41;46.95;;;28.02;;
30303;SDS011;17112;48.636;10.152;2024-03-07T10:07:14;41.08;;;27.67;;
30303;SDS011;17112;48.636;10.152;2024-03-07T10:09:41;42.47;;;27.40;;
30303;SDS011;17112;48.636;10.152;2024-03-07T10:12:07;41.13;;;26.95;;
30303;SDS011;17112;48.636;10.152;2024-03-07T10:14:49;41.63;;;28.15;;
30303;SDS011;17112;48.636;10.152;2024-03-07T10:17:25;46.63;;;29.77;;
30303;SDS011;17112;48.636;10.152;2024-03-07T10:19:51;45.38;;;28.02;;
30303;SDS011;17112;48.636;10.152;2024-03-07T10:22:18;40.50;;;26.92;;
30303;SDS011;17112;48.636;10.152;2024-03-07T10:24:51;43.67;;;26.65;;
30303;SDS011;17112;48.636;10.152;2024-03-07T10:27:20;48.67;;;29.38;;
30303;SDS011;17112;48.636;10.152;2024-03-07T10:29:47;49.65;;;30.13;;
30303;SDS011;17112;48.636;10.152;2024-03-07T10:32:14;49.78;;;30.17;;
30303;SDS011;17112;48.636;10.152;2024-03-07T10:34:51;47.78;;;29.55;;
30303;SDS011;17112;48.636;10.152;2024-03-07T10:37:17;42.78;;;29.17;;
30303;SDS011;17112;48.636;10.152;2024-03-07T10:39:46;45.00;;;28.92;;
30303;SDS011;17112;48.636;10.152;2024-03-07T10:42:15;45.25;;;30.27;;
30303;SDS011;17112;48.636;10.152;2024-03-07T10:44:45;41.90;;;29.45;;
30303;SDS011;17112;48.636;10.152;2024-03-07T10:52:40;45.30;;;29.15;;
30303;SDS011;17112;48.636;10.152;2024-03-07T10:58:27;43.80;;;28.60;;
30303;SDS011;17112;48.636;10.152;2024-03-07T11:01:18;45.08;;;28.85;;
30303;SDS011;17112;48.636;10.152;2024-03-07T11:03:45;45.60;;;30.50;;
30303;SDS011;17112;48.636;10.152;2024-03-07T11:06:12;49.67;;;29.65;;
30303;SDS011;17112;48.636;10.152;2024-03-07T11:08:39;47.30;;;30.63;;
30303;SDS011;17112;48.636;10.152;2024-03-07T11:11:06;53.05;;;31.45;;
30303;SDS011;17112;48.636;10.152;2024-03-07T11:13:33;55.20;;;31.85;;
30303;SDS011;17112;48.636;10.152;2024-03-07T11:15:59;50.13;;;31.88;;
30303;SDS011;17112;48.636;10.152;2024-03-07T11:18:28;54.85;;;35.55;;
30303;SDS011;17112;48.636;10.152;2024-03-07T11:20:53;48.60;;;31.20;;
30303;SDS011;17112;48.636;10.152;2024-03-07T11:25:56;53.28;;;30.08;;
30303;SDS011;17112;48.636;10.152;2024-03-07T11:28:28;47.67;;;29.15;;
30303;SDS011;17112;48.636;10.152;2024-03-07T11:31:06;47.28;;;27.75;;
30303;SDS011;17112;48.636;10.152;2024-03-07T11:33:39;46.78;;;28.88;;
30303;SDS011;17112;48.636;10.152;2024-03-07T11:36:08;46.38;;;28.10;;
30303;SDS011;17112;48.636;10.152;2024-03-07T11:38:38;46.83;;;29.17;;
30303;SDS011;17112;48.636;10.152;2024-03-07T11:41:11;43.97;;;28.83;;
30303;SDS011;17112;48.636;10.152;2024-03-07T11:43:39;42.13;;;27.98;;
30303;SDS011;17112;48.636;10.152;2024-03-07T11:46:07;41.83;;;28.48;;
30303;SDS011;17112;48.636;10.152;2024-03-07T11:48:39;41.20;;;27.10;;
30303;SDS011;17112;48.636;10.152;2024-03-07T11:51:27;43.63;;;27.67;;
30303;SDS011;17112;48.636;10.152;2024-03-07T11:53:54;39.05;;;24.98;;
30303;SDS011;17112;48.636;10.152;2024-03-07T11:56:20;44.38;;;25.75;;
30303;SDS011;17112;48.636;10.152;2024-03-07T11:58:46;46.80;;;26.20;;
30303;SDS011;17112;48.636;10.152;2024-03-07T12:01:20;34.67;;;23.63;;
30303;SDS011;17112;48.636;10.152;2024-03-07T12:03:50;38.55;;;24.73;;
30303;SDS011;17112;48.636;10.152;2024-03-07T12:06:17;37.63;;;24.55;;
30303;SDS011;17112;48.636;10.152;2024-03-07T12:08:45;39.33;;;23.55;;
30303;SDS011;17112;48.636;10.152;2024-03-07T12:11:10;35.80;;;22.73;;
30303;SDS011;17112;48.636;10.152;2024-03-07T12:13:40;37.28;;;23.45;;
30303;SDS011;17112;48.636;10.152;2024-03-07T12:16:08;39.00;;;24.73;;
30303;SDS011;17112;48.636;10.152;2024-03-07T12:18:34;38.63;;;23.83;;
30303;SDS011;17112;48.636;10.152;2024-03-07T12:21:01;36.05;;;23.55;;
30303;SDS011;17112;48.636;10.152;2024-03-07T12:23:31;37.00;;;24.00;;
30303;SDS011;17112;48.636;10.152;2024-03-07T12:26:01;37.88;;;24.20;;
30303;SDS011;17112;48.636;10.152;2024-03-07T12:28:28;37.80;;;23.20;;
30303;SDS011;17112;48.636;10.152;2024-03-07T12:30:58;35.50;;;23.65;;
30303;SDS011;17112;48.636;10.152;2024-03-07T12:33:27;34.83;;;23.40;;
30303;SDS011;17112;48.636;10.152;2024-03-07T12:35:56;34.17;;;21.45;;
30303;SDS011;17112;48.636;10.152;2024-03-07T12:38:52;42.00;;;26.10;;
30303;SDS011;17112;48.636;10.152;2024-03-07T12:41:18;39.45;;;25.20;;
30303;SDS011;17112;48.636;10.152;2024-03-07T12:43:47;37.75;;;24.63;;
30303;SDS011;17112;48.636;10.152;2024-03-07T12:46:13;42.78;;;26.50;;
30303;SDS011;17112;48.636;10.152;2024-03-07T12:48:40;38.45;;;24.40;;
30303;SDS011;17112;48.636;10.152;2024-03-07T12:51:06;41.92;;;24.20;;
30303;SDS011;17112;48.636;10.152;2024-03-07T12:53:32;38.33;;;24.77;;
30303;SDS011;17112;48.636;10.152;2024-03-07T12:56:00;37.60;;;22.88;;
30303;SDS011;17112;48.636;10.152;2024-03-07T12:58:26;33.60;;;21.65;;
30303;SDS011;17112;48.636;10.152;2024-03-07T13:00:56;33.42;;;22.48;;
30303;SDS011;17112;48.636;10.152;2024-03-07T13:03:25;37.95;;;23.67;;
30303;SDS011;17112;48.636;10.152;2024-03-07T13:05:57;33.72;;;22.13;;
30303;SDS011;17112;48.636;10.152;2024-03-07T13:08:26;37.17;;;23.45;;
30303;SDS011;17112;48.636;10.152;2024-03-07T13:10:54;38.28;;;25.13;;
30303;SDS011;17112;48.636;10.152;2024-03-07T13:13:20;33.30;;;23.50;;
30303;SDS011;17112;48.636;10.152;2024-03-07T13:15:46;35.80;;;23.67;;
30303;SDS011;17112;48.636;10.152;2024-03-07T13:18:12;36.42;;;23.42;;
30303;SDS011;17112;48.636;10.152;2024-03-07T13:20:38;34.78;;;22.73;;
30303;SDS011;17112;48.636;10.152;2024-03-07T13:23:08;34.92;;;22.15;;
30303;SDS011;17112;48.636;10.152;2024-03-07T13:25:33;35.08;;;21.58;;
30303;SDS011;17112;48.636;10.152;2024-03-07T13:28:03;32.88;;;21.98;;
30303;SDS011;17112;48.636;10.152;2024-03-07T13:30:48;34.28;;;22.45;;
30303;SDS011;17112;48.636;10.152;2024-03-07T13:33:13;37.70;;;23.08;;
30303;SDS011;17112;48.636;10.152;2024-03-07T13:35:39;30.80;;;20.20;;
30303;SDS011;17112;48.636;10.152;2024-03-07T13:38:06;28.67;;;20.20;;
30303;SDS011;17112;48.636;10.152;2024-03-07T13:40:33;31.63;;;21.88;;
30303;SDS011;17112;48.636;10.152;2024-03-07T13:43:06;31.83;;;21.65;;
30303;SDS011;17112;48.636;10.152;2024-03-07T13:45:33;32.22;;;20.35;;
30303;SDS011;17112;48.636;10.152;2024-03-07T13:48:08;34.20;;;21.33;;
30303;SDS011;17112;48.636;10.152;2024-03-07T13:50:35;33.13;;;22.70;;
30303;SDS011;17112;48.636;10.152;2024-03-07T13:53:03;32.33;;;21.75;;
30303;SDS011;17112;48.636;10.152;2024-03-07T13:55:33;34.60;;;22.70;;
30303;SDS011;17112;48.636;10.152;2024-03-07T13:58:05;35.85;;;24.02;;
30303;SDS011;17112;48.636;10.152;2024-03-07T14:00:51;49.20;;;24.48;;
30303;SDS011;17112;48.636;10.152;2024-03-07T14:05:56;37.08;;;21.60;;
30303;SDS011;17112;48.636;10.152;2024-03-07T14:16:53;27.83;;;19.88;;
30303;SDS011;17112;48.636;10.152;2024-03-07T14:19:45;28.55;;;19.55;;
30303;SDS011;17112;48.636;10.152;2024-03-07T14:23:08;29.55;;;19.30;;
30303;SDS011;17112;48.636;10.152;2024-03-07T14:30:52;30.10;;;20.35;;
30303;SDS011;17112;48.636;10.152;2024-03-07T14:33:29;31.63;;;20.47;;
30303;SDS011;17112;48.636;10.152;2024-03-07T14:36:01;32.88;;;21.15;;
30303;SDS011;17112;48.636;10.152;2024-03-07T14:38:40;31.85;;;21.52;;
30303;SDS011;17112;48.636;10.152;2024-03-07T14:41:20;32.25;;;20.83;;
30303;SDS011;17112;48.636;10.152;2024-03-07T14:46:16;26.63;;;18.13;;
30303;SDS011;17112;48.636;10.152;2024-03-07T14:48:43;28.23;;;19.40;;